createdAt,value
2022-11-09T00:01:29.061Z,80.20
2022-11-09T00:04:04.844Z,109.70
2022-11-09T00:06:33.987Z,104.90
2022-11-09T00:09:07.850Z,72.70
2022-11-09T00:11:38.044Z,50.70
2022-11-09T00:14:06.271Z,32.60
2022-11-09T00:16:34.239Z,20.40
2022-11-09T00:19:02.067Z,22.10
2022-11-09T00:21:30.005Z,22.70
2022-11-09T00:23:57.929Z,20.80
2022-11-09T00:26:26.326Z,20.40
2022-11-09T00:28:54.261Z,23.50
2022-11-09T00:31:24.195Z,26.40
2022-11-09T00:33:55.554Z,27.60
2022-11-09T00:36:25.755Z,21.60
2022-11-09T00:39:00.385Z,19.00
2022-11-09T00:41:28.342Z,18.30
2022-11-09T00:43:56.308Z,18.30
2022-11-09T00:46:24.565Z,17.50
2022-11-09T00:48:56.103Z,17.70
2022-11-09T00:51:24.182Z,18.10
2022-11-09T00:53:54.733Z,18.40
2022-11-09T00:56:23.300Z,16.90
2022-11-09T00:58:55.729Z,17.90
2022-11-09T01:01:24.345Z,19.80
2022-11-09T01:03:52.182Z,41.00
2022-11-09T01:06:25.619Z,61.10
2022-11-09T01:08:53.794Z,43.50
2022-11-09T01:11:22.993Z,22.90
2022-11-09T01:13:51.121Z,19.10
2022-11-09T01:16:22.330Z,18.40
2022-11-09T01:18:56.757Z,17.70
2022-11-09T01:21:26.611Z,19.50
2022-11-09T01:23:55.713Z,17.70
2022-11-09T01:26:23.527Z,17.70
2022-11-09T01:28:51.331Z,16.70
2022-11-09T01:31:21.594Z,17.10
2022-11-09T01:33:49.831Z,18.30
2022-11-09T01:36:23.005Z,17.20
2022-11-09T01:38:51.452Z,19.00
2022-11-09T01:41:28.169Z,20.70
2022-11-09T01:44:14.760Z,23.50
2022-11-09T01:46:49.037Z,21.30
2022-11-09T01:49:42.696Z,19.00
2022-11-09T01:52:21.846Z,18.40
2022-11-09T01:54:56.358Z,20.30
2022-11-09T01:58:08.733Z,28.90
2022-11-09T02:00:39.080Z,33.00
2022-11-09T02:03:16.014Z,34.90
2022-11-09T02:05:44.275Z,27.50
2022-11-09T02:08:15.908Z,31.10
2022-11-09T02:11:10.795Z,66.60
2022-11-09T02:13:44.139Z,66.40
2022-11-09T02:16:13.424Z,55.10
2022-11-09T02:18:57.488Z,33.20
2022-11-09T02:21:27.827Z,26.10
2022-11-09T02:23:56.214Z,23.50
2022-11-09T02:26:33.608Z,19.50
2022-11-09T02:29:05.744Z,19.60
2022-11-09T02:31:38.916Z,20.50
2022-11-09T02:34:17.008Z,17.80
2022-11-09T02:36:45.116Z,17.40
2022-11-09T02:39:15.652Z,18.90
2022-11-09T02:41:52.170Z,18.40
2022-11-09T02:44:20.380Z,19.20
2022-11-09T02:46:50.787Z,23.60
2022-11-09T02:49:18.571Z,32.30
2022-11-09T02:51:46.514Z,82.30
2022-11-09T02:54:14.728Z,91.20
2022-11-09T02:56:43.312Z,80.00
2022-11-09T02:59:11.118Z,67.20
2022-11-09T03:01:39.077Z,48.00
2022-11-09T03:04:06.985Z,37.10
2022-11-09T03:06:35.158Z,30.40
2022-11-09T03:09:09.918Z,31.00
2022-11-09T03:11:40.066Z,28.10
2022-11-09T03:14:09.908Z,33.20
2022-11-09T03:16:39.246Z,32.80
2022-11-09T03:19:07.456Z,29.40
2022-11-09T03:21:35.831Z,29.20
2022-11-09T03:24:03.847Z,33.70
2022-11-09T03:26:31.642Z,28.00
2022-11-09T03:28:59.609Z,27.40
2022-11-09T03:31:27.402Z,23.90
2022-11-09T03:33:55.317Z,24.80
2022-11-09T03:36:23.202Z,25.20
2022-11-09T03:38:50.993Z,21.70
2022-11-09T03:41:19.067Z,22.10
2022-11-09T03:43:46.898Z,27.70
2022-11-09T03:46:14.864Z,29.10
2022-11-09T03:48:42.819Z,40.40
2022-11-09T03:51:10.775Z,41.50
2022-11-09T03:53:38.557Z,39.40
2022-11-09T03:56:06.895Z,37.00
2022-11-09T03:58:34.764Z,32.50
2022-11-09T04:01:02.710Z,36.70
2022-11-09T04:03:30.531Z,35.10
2022-11-09T04:05:59.432Z,33.60
2022-11-09T04:08:27.592Z,31.70
2022-11-09T04:10:55.676Z,32.10
2022-11-09T04:13:23.449Z,30.50
2022-11-09T04:15:51.250Z,23.90
2022-11-09T04:18:19.158Z,23.80
2022-11-09T04:20:47.071Z,24.70
2022-11-09T04:23:15.075Z,23.90
2022-11-09T04:25:43.219Z,20.40
2022-11-09T04:28:12.921Z,21.00
2022-11-09T04:30:40.792Z,19.60
2022-11-09T04:33:09.527Z,18.20
2022-11-09T04:35:38.423Z,18.40
2022-11-09T04:38:08.697Z,17.90
2022-11-09T04:40:36.932Z,16.50
2022-11-09T04:43:07.496Z,17.40
2022-11-09T04:45:35.827Z,17.70
2022-11-09T04:48:06.945Z,17.20
2022-11-09T04:50:35.168Z,17.80
2022-11-09T04:53:12.472Z,17.20
2022-11-09T04:55:40.858Z,17.60
2022-11-09T04:58:09.268Z,18.80
2022-11-09T05:00:37.703Z,18.10
2022-11-09T05:03:06.734Z,18.60
2022-11-09T05:05:36.233Z,18.90
2022-11-09T05:08:05.359Z,18.80
2022-11-09T05:10:33.619Z,17.00
2022-11-09T05:13:05.304Z,17.60
2022-11-09T05:15:34.733Z,18.30
2022-11-09T05:18:03.770Z,17.40
2022-11-09T05:20:32.518Z,18.50
2022-11-09T05:23:20.009Z,19.00
2022-11-09T05:25:48.340Z,19.00
2022-11-09T05:28:16.238Z,20.10
2022-11-09T05:30:44.030Z,19.20
2022-11-09T05:33:11.803Z,18.40
2022-11-09T05:35:39.656Z,16.10
2022-11-09T05:38:07.433Z,18.60
2022-11-09T05:40:35.278Z,17.90
2022-11-09T05:43:03.107Z,17.60
2022-11-09T05:45:46.505Z,17.30
2022-11-09T05:48:17.259Z,18.10
2022-11-09T05:50:45.516Z,18.90
2022-11-09T05:53:13.352Z,18.80
2022-11-09T05:55:41.319Z,19.20
2022-11-09T05:58:09.728Z,19.20
2022-11-09T06:00:37.912Z,19.40
2022-11-09T06:03:10.876Z,19.30
2022-11-09T06:05:41.009Z,21.20
2022-11-09T06:08:14.258Z,19.10
2022-11-09T06:10:43.243Z,19.30
2022-11-09T06:13:11.526Z,19.30
2022-11-09T06:15:39.346Z,20.10
2022-11-09T06:18:07.243Z,19.60
2022-11-09T06:20:35.312Z,19.60
2022-11-09T06:23:04.333Z,20.00
2022-11-09T06:25:33.462Z,18.20
2022-11-09T06:28:01.724Z,21.20
2022-11-09T06:30:29.970Z,21.30
2022-11-09T06:33:02.284Z,20.90
2022-11-09T06:35:30.262Z,21.50
2022-11-09T06:38:00.159Z,20.60
2022-11-09T06:40:28.908Z,20.70
2022-11-09T06:42:59.271Z,20.10
2022-11-09T06:45:28.703Z,20.90
2022-11-09T06:48:03.057Z,21.70
2022-11-09T06:50:33.855Z,22.90
2022-11-09T06:53:05.034Z,21.80
2022-11-09T06:55:35.134Z,22.10
2022-11-09T06:58:08.863Z,22.40
2022-11-09T07:00:37.377Z,24.60
2022-11-09T07:03:05.309Z,26.80
2022-11-09T07:05:33.436Z,25.20
2022-11-09T07:08:01.326Z,24.20
2022-11-09T07:10:29.247Z,23.20
2022-11-09T07:12:59.386Z,23.00
2022-11-09T07:15:27.188Z,22.90
2022-11-09T07:17:59.676Z,20.40
2022-11-09T07:20:28.696Z,19.50
2022-11-09T07:22:56.689Z,20.60
2022-11-09T07:25:27.369Z,20.20
2022-11-09T07:27:55.543Z,21.20
2022-11-09T07:30:23.378Z,20.40
2022-11-09T07:33:08.772Z,21.80
2022-11-09T07:35:38.100Z,20.10
2022-11-09T07:38:06.561Z,20.10
2022-11-09T07:40:34.902Z,21.60
2022-11-09T07:43:05.877Z,20.50
2022-11-09T07:45:35.549Z,20.80
2022-11-09T07:48:10.273Z,21.00
2022-11-09T07:50:40.169Z,26.30
2022-11-09T07:53:10.321Z,27.40
2022-11-09T07:55:38.456Z,27.10
2022-11-09T07:58:15.713Z,24.00
2022-11-09T08:00:46.839Z,23.20
2022-11-09T08:03:14.721Z,22.60
2022-11-09T08:05:42.543Z,21.00
2022-11-09T08:08:12.331Z,20.60
2022-11-09T08:10:40.556Z,20.30
2022-11-09T08:13:14.444Z,20.70
2022-11-09T08:15:42.775Z,21.60
2022-11-09T08:18:17.861Z,20.40
2022-11-09T08:20:46.150Z,19.30
2022-11-09T08:23:16.726Z,20.90
2022-11-09T08:25:44.771Z,20.10
2022-11-09T08:28:15.032Z,19.90
2022-11-09T08:30:44.459Z,21.40
2022-11-09T08:33:13.115Z,20.80
2022-11-09T08:35:41.019Z,20.90
2022-11-09T08:38:09.651Z,19.00
2022-11-09T08:40:37.697Z,20.00
2022-11-09T08:43:08.682Z,19.40
2022-11-09T08:45:39.297Z,19.70
2022-11-09T08:48:09.046Z,18.80
2022-11-09T08:50:37.635Z,20.30
2022-11-09T08:53:06.018Z,19.50
2022-11-09T08:55:35.036Z,19.30
2022-11-09T08:58:04.306Z,20.50
2022-11-09T09:00:32.298Z,19.70
2022-11-09T09:03:05.566Z,21.50
2022-11-09T09:05:38.520Z,21.30
2022-11-09T09:08:07.133Z,20.60
2022-11-09T09:10:35.723Z,21.60
2022-11-09T09:13:04.354Z,21.10
2022-11-09T09:15:32.498Z,21.10
2022-11-09T09:18:02.331Z,20.10
2022-11-09T09:20:30.462Z,19.20
2022-11-09T09:23:00.247Z,18.50
2022-11-09T09:25:28.214Z,18.90
2022-11-09T09:27:56.392Z,19.30
2022-11-09T09:30:24.537Z,20.10
2022-11-09T09:32:52.426Z,20.80
2022-11-09T09:35:20.196Z,20.00
2022-11-09T09:37:48.541Z,20.70
2022-11-09T09:41:09.223Z,20.70
2022-11-09T09:43:43.572Z,20.20
2022-11-09T09:46:43.148Z,19.70
2022-11-09T09:49:20.782Z,20.50
2022-11-09T09:52:29.489Z,19.60
2022-11-09T09:55:16.501Z,19.40
2022-11-09T09:57:49.062Z,19.90
2022-11-09T10:00:27.974Z,19.20
2022-11-09T10:02:55.840Z,18.70
2022-11-09T10:05:37.904Z,18.80
2022-11-09T10:08:31.761Z,20.00
2022-11-09T10:11:27.546Z,19.20
2022-11-09T10:14:38.697Z,18.80
2022-11-09T10:17:29.560Z,18.80
2022-11-09T10:20:15.819Z,20.00
2022-11-09T10:23:36.354Z,19.10
2022-11-09T10:26:41.712Z,19.20
2022-11-09T10:29:41.006Z,19.00
2022-11-09T10:32:17.810Z,17.40
2022-11-09T10:35:14.972Z,18.20
2022-11-09T10:37:52.971Z,16.40
2022-11-09T10:40:34.255Z,18.10
2022-11-09T10:43:10.355Z,16.70
2022-11-09T10:45:41.159Z,16.60
2022-11-09T10:48:12.786Z,17.10
2022-11-09T10:50:47.370Z,18.40
2022-11-09T10:53:24.979Z,16.50
2022-11-09T10:56:21.777Z,16.60
2022-11-09T10:58:52.685Z,17.40
2022-11-09T11:01:24.274Z,16.70
2022-11-09T11:03:54.535Z,17.70
2022-11-09T11:06:22.354Z,17.00
2022-11-09T11:09:14.962Z,16.20
2022-11-09T11:11:42.977Z,15.30
2022-11-09T11:14:35.284Z,15.30
2022-11-09T11:17:03.215Z,16.60
2022-11-09T11:19:38.692Z,15.90
2022-11-09T11:22:12.769Z,16.20
2022-11-09T11:24:51.916Z,15.80
2022-11-09T11:27:32.291Z,14.90
2022-11-09T11:30:10.690Z,15.00
2022-11-09T11:32:38.545Z,14.00
2022-11-09T11:35:22.996Z,15.20
2022-11-09T11:38:17.335Z,14.50
2022-11-09T11:41:04.143Z,15.20
2022-11-09T11:43:58.131Z,14.70
2022-11-09T11:46:53.179Z,13.60
2022-11-09T11:49:50.528Z,14.40
2022-11-09T11:52:45.035Z,14.30
2022-11-09T11:55:59.990Z,14.60
2022-11-09T11:58:30.901Z,13.80
2022-11-09T12:01:54.376Z,13.40
2022-11-09T12:04:59.557Z,14.80
2022-11-09T12:07:52.251Z,13.70
2022-11-09T12:10:41.171Z,14.00
2022-11-09T12:13:25.573Z,13.80
2022-11-09T12:16:36.395Z,13.30
2022-11-09T12:19:35.281Z,13.60
2022-11-09T12:22:41.878Z,13.20
2022-11-09T12:25:35.077Z,13.10
2022-11-09T12:28:22.120Z,14.30
2022-11-09T12:30:59.420Z,14.30
2022-11-09T12:33:45.519Z,14.60
2022-11-09T12:36:20.907Z,14.20
2022-11-09T12:39:06.653Z,14.90
2022-11-09T12:41:37.658Z,15.60
2022-11-09T12:44:17.410Z,14.20
2022-11-09T12:47:00.746Z,14.40
2022-11-09T12:52:12.072Z,15.30
2022-11-09T12:54:46.904Z,14.60
2022-11-09T12:57:22.625Z,14.90
2022-11-09T12:59:54.299Z,14.30
2022-11-09T13:02:27.458Z,13.90
2022-11-09T13:05:31.243Z,14.00
2022-11-09T13:08:03.880Z,15.00
2022-11-09T13:10:37.593Z,13.60
2022-11-09T13:13:11.687Z,13.10
2022-11-09T13:16:04.413Z,14.30
2022-11-09T13:18:35.727Z,14.40
2022-11-09T13:21:26.826Z,13.80
2022-11-09T13:24:05.166Z,14.80
2022-11-09T13:26:34.793Z,14.60
2022-11-09T13:29:14.851Z,14.20
2022-11-09T13:32:02.199Z,14.90
2022-11-09T13:34:48.913Z,15.10
2022-11-09T13:37:41.941Z,16.60
2022-11-09T13:40:31.640Z,16.40
2022-11-09T13:43:04.227Z,15.70
2022-11-09T13:45:50.359Z,14.90
2022-11-09T13:48:35.903Z,15.50
2022-11-09T13:51:35.367Z,14.80
2022-11-09T13:54:08.498Z,16.50
2022-11-09T13:56:41.248Z,15.20
2022-11-09T13:59:28.165Z,15.20
2022-11-09T14:01:59.201Z,13.70
2022-11-09T14:04:47.559Z,13.60
2022-11-09T14:07:27.877Z,14.20
2022-11-09T14:10:46.188Z,14.00
2022-11-09T14:14:15.433Z,18.70
2022-11-09T14:17:03.739Z,16.10
2022-11-09T14:20:06.896Z,14.00
2022-11-09T14:22:40.240Z,16.20
2022-11-09T14:25:20.661Z,17.90
2022-11-09T14:27:57.499Z,17.50
2022-11-09T14:30:29.347Z,21.50
2022-11-09T14:32:59.018Z,26.20
2022-11-09T14:35:37.533Z,30.40
2022-11-09T14:38:24.093Z,27.80
2022-11-09T14:40:53.566Z,27.70
2022-11-09T14:43:43.186Z,26.40
2022-11-09T14:46:24.138Z,24.30
2022-11-09T14:49:00.071Z,22.80
2022-11-09T14:51:40.144Z,22.80
2022-11-09T14:54:13.099Z,22.40
2022-11-09T14:56:41.672Z,24.40
2022-11-09T14:59:14.616Z,23.20
2022-11-09T15:02:01.434Z,22.40
2022-11-09T15:04:52.827Z,20.70
2022-11-09T15:07:27.063Z,22.90
2022-11-09T15:10:06.643Z,23.40
2022-11-09T15:12:36.245Z,22.80
2022-11-09T15:15:07.160Z,24.20
2022-11-09T15:17:37.609Z,23.20
2022-11-09T15:20:08.522Z,21.10
2022-11-09T15:22:59.095Z,21.30
2022-11-09T15:25:31.486Z,24.60
2022-11-09T15:28:10.422Z,28.40
2022-11-09T15:31:13.559Z,31.40
2022-11-09T15:33:53.499Z,32.30
2022-11-09T15:36:35.112Z,27.80
2022-11-09T15:39:15.780Z,28.20
2022-11-09T15:41:43.813Z,27.10
2022-11-09T15:44:17.249Z,25.50
2022-11-09T15:46:51.987Z,26.00
2022-11-09T15:49:28.755Z,25.40
2022-11-09T15:51:57.080Z,24.30
2022-11-09T15:54:25.196Z,24.00
2022-11-09T15:56:53.685Z,24.10
2022-11-09T15:59:29.950Z,24.90
2022-11-09T16:01:58.133Z,28.20
2022-11-09T16:04:26.386Z,31.20
2022-11-09T16:06:54.714Z,32.10
2022-11-09T16:09:26.642Z,34.90
2022-11-09T16:11:55.433Z,29.50
2022-11-09T16:14:23.974Z,30.10
2022-11-09T16:16:54.229Z,30.20
2022-11-09T16:19:24.563Z,29.70
2022-11-09T16:21:53.903Z,29.80
2022-11-09T16:24:30.267Z,29.10
2022-11-09T16:26:58.887Z,28.80
2022-11-09T16:29:29.043Z,30.10
2022-11-09T16:32:01.512Z,31.20
2022-11-09T16:34:32.884Z,40.50
2022-11-09T16:37:01.932Z,40.50
2022-11-09T16:39:32.416Z,35.20
2022-11-09T16:42:02.567Z,35.60
2022-11-09T16:44:34.256Z,34.60
2022-11-09T16:47:03.660Z,33.30
2022-11-09T16:49:31.914Z,33.70
2022-11-09T16:51:59.999Z,26.20
2022-11-09T16:54:27.990Z,25.50
2022-11-09T16:56:56.153Z,25.70
2022-11-09T16:59:24.617Z,25.70
2022-11-09T17:02:00.148Z,25.60
2022-11-09T17:04:28.108Z,25.40
2022-11-09T17:06:56.231Z,24.00
2022-11-09T17:09:24.396Z,28.40
2022-11-09T17:11:52.223Z,30.20
2022-11-09T17:14:20.023Z,30.90
2022-11-09T17:16:49.217Z,28.50
2022-11-09T17:19:17.109Z,29.80
2022-11-09T17:21:44.967Z,26.00
2022-11-09T17:24:13.462Z,29.10
2022-11-09T17:26:41.296Z,30.20
2022-11-09T17:29:09.169Z,35.70
2022-11-09T17:31:38.228Z,49.80
2022-11-09T17:34:05.989Z,49.80
2022-11-09T17:37:02.377Z,42.70
2022-11-09T17:39:22.826Z,35.80
2022-11-09T17:41:50.670Z,34.00
2022-11-09T17:44:18.479Z,32.10
2022-11-09T17:46:47.822Z,31.90
2022-11-09T17:49:15.739Z,29.70
2022-11-09T17:51:43.520Z,32.90
2022-11-09T17:54:11.334Z,33.90
2022-11-09T17:56:39.927Z,33.10
2022-11-09T17:59:07.981Z,40.20
2022-11-09T18:01:41.229Z,51.60
2022-11-09T18:04:10.983Z,33.30
2022-11-09T18:06:39.144Z,32.10
2022-11-09T18:11:55.096Z,43.80
2022-11-09T18:14:22.892Z,70.80
2022-11-09T18:16:50.880Z,55.00
2022-11-09T18:19:18.760Z,53.50
2022-11-09T18:21:47.496Z,43.20
2022-11-09T18:24:15.409Z,37.40
2022-11-09T18:26:43.229Z,37.90
2022-11-09T18:29:11.090Z,34.30
2022-11-09T18:31:38.961Z,33.60
2022-11-09T18:34:06.870Z,32.50
2022-11-09T18:36:34.694Z,33.00
2022-11-09T18:39:03.461Z,31.90
2022-11-09T18:41:31.479Z,32.10
2022-11-09T18:43:59.462Z,32.80
2022-11-09T18:46:30.851Z,32.70
2022-11-09T18:48:59.107Z,32.10
2022-11-09T18:51:27.179Z,33.30
2022-11-09T18:53:55.087Z,32.20
2022-11-09T18:56:25.048Z,34.10
2022-11-09T18:58:55.373Z,33.90
2022-11-09T19:01:24.977Z,33.90
2022-11-09T19:03:58.953Z,32.90
2022-11-09T19:06:28.289Z,35.40
2022-11-09T19:09:15.144Z,33.80
2022-11-09T19:11:45.686Z,34.60
2022-11-09T19:14:13.543Z,33.30
2022-11-09T19:16:41.564Z,33.60
2022-11-09T19:19:13.644Z,33.90
2022-11-09T19:21:54.914Z,35.40
2022-11-09T19:24:25.308Z,33.40
2022-11-09T19:26:55.785Z,32.00
2022-11-09T19:29:23.712Z,31.80
2022-11-09T19:31:51.929Z,34.60
2022-11-09T19:34:21.863Z,32.00
2022-11-09T19:36:50.220Z,30.60
2022-11-09T19:39:18.521Z,30.70
2022-11-09T19:41:46.508Z,31.90
2022-11-09T19:44:15.066Z,30.90
2022-11-09T19:46:43.176Z,31.70
2022-11-09T19:49:11.262Z,31.50
2022-11-09T19:51:39.778Z,30.90
2022-11-09T19:54:11.348Z,29.90
2022-11-09T19:56:39.485Z,31.50
2022-11-09T19:59:07.851Z,31.60
2022-11-09T20:01:35.901Z,32.10
2022-11-09T20:04:09.082Z,32.00
2022-11-09T20:06:39.789Z,31.20
2022-11-09T20:09:07.953Z,32.70
2022-11-09T20:11:54.308Z,32.10
2022-11-09T20:14:22.601Z,32.10
2022-11-09T20:16:51.148Z,32.50
2022-11-09T20:19:19.172Z,31.60
2022-11-09T20:21:49.707Z,33.20
2022-11-09T20:24:17.561Z,30.10
2022-11-09T20:26:45.481Z,32.60
2022-11-09T20:29:13.426Z,32.30
2022-11-09T20:31:41.615Z,31.00
2022-11-09T20:34:09.839Z,29.90
2022-11-09T20:36:38.130Z,31.40
2022-11-09T20:39:06.333Z,33.70
2022-11-09T20:41:40.291Z,32.50
2022-11-09T20:44:10.307Z,32.30
2022-11-09T20:46:38.719Z,32.10
2022-11-09T20:49:06.645Z,31.30
2022-11-09T20:51:34.550Z,31.70
2022-11-09T20:54:07.247Z,33.10
2022-11-09T20:56:37.400Z,31.60
2022-11-09T20:59:05.517Z,31.70
2022-11-09T21:01:33.755Z,32.00
2022-11-09T21:04:01.764Z,31.00
2022-11-09T21:06:32.153Z,30.00
2022-11-09T21:09:05.636Z,32.50
2022-11-09T21:11:36.267Z,32.10
2022-11-09T21:14:04.265Z,33.10
2022-11-09T21:16:32.285Z,32.50
2022-11-09T21:19:00.157Z,32.00
2022-11-09T21:21:32.059Z,31.40
2022-11-09T21:24:21.478Z,31.80
2022-11-09T21:27:07.956Z,32.00
2022-11-09T21:29:50.925Z,30.90
2022-11-09T21:34:48.919Z,31.00
2022-11-09T21:37:17.408Z,33.10
2022-11-09T21:39:46.172Z,32.60
2022-11-09T21:42:14.360Z,30.60
2022-11-09T21:44:42.229Z,32.30
2022-11-09T21:47:10.232Z,31.60
2022-11-09T21:49:38.109Z,31.90
2022-11-09T21:52:06.134Z,31.60
2022-11-09T21:54:34.053Z,32.60
2022-11-09T21:57:01.960Z,29.40
2022-11-09T21:59:29.914Z,30.50
2022-11-09T22:01:57.998Z,30.10
2022-11-09T22:04:26.103Z,32.10
2022-11-09T22:06:54.025Z,31.70
2022-11-09T22:09:21.879Z,29.30
2022-11-09T22:12:08.511Z,29.70
2022-11-09T22:14:54.899Z,29.10
2022-11-09T22:17:22.954Z,29.40
2022-11-09T22:20:09.475Z,28.90
2022-11-09T22:22:37.443Z,28.30
2022-11-09T22:25:06.120Z,29.00
2022-11-09T22:27:34.321Z,28.10
2022-11-09T22:30:02.379Z,27.20
2022-11-09T22:32:30.327Z,28.60
2022-11-09T22:34:58.122Z,29.20
2022-11-09T22:37:26.063Z,27.50
2022-11-09T22:39:54.018Z,28.70
2022-11-09T22:42:21.894Z,29.30
2022-11-09T22:44:49.766Z,28.70
2022-11-09T22:47:17.719Z,28.50
2022-11-09T22:49:45.599Z,29.90
2022-11-09T22:52:13.570Z,29.40
2022-11-09T22:54:41.352Z,30.20
2022-11-09T22:57:09.293Z,29.80
2022-11-09T22:59:37.196Z,28.10
2022-11-09T23:02:05.248Z,29.10
2022-11-09T23:04:33.294Z,28.40
2022-11-09T23:07:01.201Z,28.40
2022-11-09T23:09:29.105Z,28.80
2022-11-09T23:11:57.014Z,29.10
2022-11-09T23:14:43.321Z,27.90
2022-11-09T23:17:31.107Z,29.00
2022-11-09T23:19:59.006Z,29.00
2022-11-09T23:22:26.948Z,28.50
2022-11-09T23:25:13.241Z,28.00
2022-11-09T23:27:41.237Z,27.30
2022-11-09T23:30:09.557Z,27.60
2022-11-09T23:32:37.397Z,28.20
2022-11-09T23:35:06.093Z,28.50
2022-11-09T23:37:33.989Z,28.20
2022-11-09T23:40:01.818Z,28.00
2022-11-09T23:42:29.701Z,27.20
2022-11-09T23:44:57.555Z,26.60
2022-11-09T23:47:25.686Z,26.90
2022-11-09T23:49:53.558Z,26.20
2022-11-09T23:52:21.334Z,26.30
2022-11-09T23:54:49.299Z,24.00
2022-11-09T23:57:17.190Z,26.20
2022-11-09T23:59:45.058Z,25.50
